Big Rapids, MI

3:06 AM EST on December 16, 2019 (GMT -0500)
Roben-Hood

Weather History for KRQB - October, 2019

Change the Weather History Date:

Tuesday, October 22, 2019

  Actual Average Record
Temperature  
Mean Temperature 48 °F -  
Max Temperature 53 °F 55 °F 77 °F (1979)
Min Temperature 43 °F 34 °F 0 °F (1998)
Degree Days  
Heating Degree Days 17    
Moisture  
Dew Point 42 °F    
Average Humidity 86    
Maximum Humidity 92    
Minimum Humidity 72    
Precipitation  
Precipitation 0.06 in - - ()
Sea Level Pressure  
Sea Level Pressure 29.52 in    
Wind  
Wind Speed 10 mph (SSW)    
Max Wind Speed 16 mph    
Max Gust Speed 28 mph    
Visibility 8 miles    
Events Rain    
Averages and records for this station are not official NWS values.
T = Trace of Precipitation, MM = Missing Value Source: NWS Daily Summary

Daily Weather History Graph

Daily Weather History Graph

Search for Another Location

Airport or City:

Astronomy

Oct. 22, 2019 Rise Set
Actual Time 8:04 AM EDT 6:47 PM EDT
Civil Twilight 7:35 AM EDT 7:16 PM EDT
Nautical Twilight 7:01 AM EDT 7:50 PM EDT
Astronomical Twilight 6:28 AM EDT 8:23 PM EDT
Moon 12:57 AM EDT (10/22) 4:11 PM EDT (10/22)
Length of Visible Light 11h 41m
Length of Day
10h 42m
Last Quarter, 37% of the Moon is Illuminated
Oct 22
Last Quarter
Oct 27
New
Nov 4
First Quarter
Nov 12
Full
Nov 19
Last Quarter

Hourly Weather History & Observations

Time (EDT) Temp. Windchill Dew Point Humidity Pressure Visibility Wind Dir Wind Speed Gust Speed Precip Events Conditions
12:16 AM 53.8 °F - 46.2 °F 76% 29.55 in 10.0 mi WSW 15.0 mph 19.6 mph N/A   Mostly Cloudy
12:35 AM 52.7 °F - 44.1 °F 72% 29.55 in 10.0 mi SW 6.9 mph 16.1 mph N/A   Mostly Cloudy
12:36 AM 52.5 °F - 44.1 °F 73% 29.55 in 10.0 mi SW 6.9 mph 16.1 mph N/A   Mostly Cloudy
12:55 AM 52.2 °F - 43.7 °F 73% 29.55 in 10.0 mi SSW 8.1 mph - N/A   Scattered Clouds
12:59 AM 52.0 °F - 43.3 °F 72% 29.55 in 10.0 mi South 8.1 mph - N/A   Clear
1:17 AM 51.1 °F - 43.2 °F 74% 29.54 in 10.0 mi South 8.1 mph - N/A   Clear
1:35 AM 50.5 °F - 41.9 °F 72% 29.54 in 10.0 mi South 5.8 mph 17.3 mph N/A   Clear
1:55 AM 49.8 °F - 41.9 °F 74% 29.53 in 10.0 mi South 5.8 mph - N/A   Clear
2:17 AM 48.7 °F - 42.1 °F 78% 29.53 in 10.0 mi South 6.9 mph - N/A   Clear
2:35 AM 47.7 °F - 42.3 °F 82% 29.53 in 10.0 mi South 6.9 mph - N/A   Clear
2:55 AM 47.5 °F - 41.9 °F 81% 29.53 in 10.0 mi South 5.8 mph - N/A   Clear
3:00 AM 47.3 °F - 41.9 °F 82% 29.53 in 10.0 mi South 5.8 mph - N/A   Clear
3:18 AM 46.8 °F - 41.7 °F 83% 29.52 in 10.0 mi South 5.8 mph - N/A   Clear
3:35 AM 46.6 °F - 41.7 °F 83% 29.52 in 10.0 mi South 5.8 mph - N/A   Clear
3:36 AM 46.6 °F - 41.7 °F 83% 29.52 in 10.0 mi South 6.9 mph - N/A   Clear
3:55 AM 46.4 °F 42.9 °F 41.5 °F 83% 29.51 in 10.0 mi South 6.9 mph - N/A   Clear
3:56 AM 46.4 °F 43.5 °F 41.5 °F 83% 29.51 in 10.0 mi South 5.8 mph - N/A   Clear
4:18 AM 46.4 °F 44.3 °F 41.5 °F 83% 29.50 in 10.0 mi South 4.6 mph - N/A   Clear
4:36 AM 46.4 °F 42.9 °F 41.9 °F 84% 29.49 in 10.0 mi South 6.9 mph - N/A   Clear
4:55 AM 46.4 °F 43.5 °F 41.5 °F 83% 29.48 in 10.0 mi South 5.8 mph - N/A   Clear
4:56 AM 46.4 °F 44.3 °F 41.5 °F 83% 29.48 in 10.0 mi South 4.6 mph - N/A   Clear
5:18 AM 46.0 °F 43.1 °F 41.2 °F 83% 29.47 in 10.0 mi South 5.8 mph - N/A   Scattered Clouds
5:35 AM 46.0 °F 42.5 °F 41.0 °F 83% 29.47 in 10.0 mi South 6.9 mph - N/A   Scattered Clouds
5:55 AM 46.4 °F 42.9 °F 40.6 °F 80% 29.47 in 10.0 mi South 6.9 mph - N/A   Scattered Clouds
6:19 AM 46.4 °F 42.4 °F 40.8 °F 81% 29.47 in 10.0 mi South 8.1 mph - N/A   Mostly Cloudy
6:36 AM 46.6 °F - 40.8 °F 80% 29.46 in 10.0 mi South 10.4 mph - N/A   Overcast
6:55 AM 46.8 °F - 41.0 °F 80% 29.45 in 10.0 mi South 9.2 mph - N/A   Overcast
6:56 AM 46.6 °F - 41.0 °F 81% 29.45 in 10.0 mi South 9.2 mph - N/A   Overcast
7:37 AM 47.3 °F - 41.2 °F 79% 29.44 in 10.0 mi South 9.2 mph 19.6 mph N/A   Overcast
7:56 AM 47.3 °F - 41.2 °F 79% 29.44 in 10.0 mi South 9.2 mph 19.6 mph N/A   Overcast
8:15 AM 47.7 °F - 41.2 °F 78% 29.43 in 10.0 mi South 11.5 mph 19.6 mph N/A   Overcast
8:39 AM 47.8 °F - 41.2 °F 78% 29.43 in 10.0 mi South 12.7 mph 19.6 mph N/A   Overcast
8:56 AM 48.2 °F - 41.4 °F 77% 29.43 in 10.0 mi South 9.2 mph 18.4 mph N/A Rain Light Rain
9:15 AM 47.3 °F - 42.3 °F 83% 29.44 in 5.0 mi South 11.5 mph 18.4 mph N/A Rain Light Rain
9:16 AM 47.1 °F - 42.3 °F 83% 29.44 in 5.0 mi SSW 9.2 mph 18.4 mph N/A Rain Light Rain
9:35 AM 46.4 °F 41.5 °F 43.2 °F 88% 29.44 in 7.0 mi South 10.4 mph 16.1 mph 0.01 in Rain Light Rain
9:40 AM 46.4 °F 41.5 °F 43.2 °F 88% 29.44 in 10.0 mi SSW 10.4 mph 16.1 mph 0.01 in Rain Light Rain
9:57 AM 46.9 °F - 43.7 °F 88% 29.45 in 10.0 mi South 12.7 mph 20.7 mph 0.01 in   Overcast
10:15 AM 47.5 °F - 43.3 °F 86% 29.44 in 10.0 mi South 12.7 mph 21.9 mph N/A   Overcast
10:16 AM 47.5 °F - 43.3 °F 86% 29.44 in 10.0 mi South 12.7 mph 21.9 mph N/A   Overcast
10:35 AM 47.5 °F - 43.7 °F 87% 29.44 in 10.0 mi SSW 12.7 mph 19.6 mph N/A   Overcast
10:36 AM 47.5 °F - 43.7 °F 87% 29.44 in 10.0 mi SSW 13.8 mph 19.6 mph N/A   Overcast
11:15 AM 46.8 °F - 44.4 °F 92% 29.44 in 10.0 mi SSW 9.2 mph 16.1 mph N/A Rain Light Rain
11:35 AM 47.3 °F - 44.4 °F 90% 29.45 in 10.0 mi SW 11.5 mph 23.0 mph N/A   Overcast
11:36 AM 47.3 °F - 44.4 °F 90% 29.45 in 10.0 mi SSW 10.4 mph 23.0 mph N/A   Overcast
12:00 PM 46.9 °F - 43.7 °F 88% 29.45 in 10.0 mi SSW 16.1 mph 27.6 mph N/A   Overcast
12:17 PM 46.8 °F - 43.7 °F 89% 29.46 in 7.0 mi SSW 12.7 mph 21.9 mph N/A Rain Light Rain
12:35 PM 46.6 °F - 43.9 °F 90% 29.46 in 7.0 mi SSW 8.1 mph 17.3 mph N/A Rain Light Rain
12:55 PM 46.6 °F - 43.7 °F 90% 29.46 in 3.0 mi SW 13.8 mph 24.2 mph 0.01 in Rain Light Rain
12:56 PM 46.6 °F - 43.7 °F 90% 29.46 in 3.0 mi SW 15.0 mph 24.2 mph 0.01 in Rain Light Rain
1:18 PM 46.4 °F 39.8 °F 43.7 °F 90% 29.46 in 4.0 mi SW 16.1 mph 26.5 mph N/A Rain Light Rain
1:35 PM 46.4 °F 40.4 °F 43.9 °F 91% 29.46 in 4.0 mi SW 13.8 mph 25.3 mph N/A Rain Light Rain
1:55 PM 46.4 °F 41.9 °F 43.7 °F 90% 29.47 in 4.0 mi SW 9.2 mph 19.6 mph N/A Rain Light Rain
2:15 PM 46.4 °F 40.7 °F 43.9 °F 91% 29.47 in 5.0 mi SW 12.7 mph 23.0 mph N/A   Overcast
2:20 PM 46.4 °F 40.7 °F 43.9 °F 91% 29.48 in 5.0 mi SW 12.7 mph 20.7 mph N/A   Overcast
2:37 PM 46.4 °F 41.1 °F 43.7 °F 90% 29.48 in 7.0 mi SW 11.5 mph 17.3 mph N/A Rain Rain
2:55 PM 46.4 °F 40.4 °F 43.5 °F 90% 29.48 in 10.0 mi SW 13.8 mph 25.3 mph N/A   Overcast
2:56 PM 46.4 °F 40.7 °F 43.5 °F 90% 29.48 in 10.0 mi SW 12.7 mph 25.3 mph N/A   Overcast
3:15 PM 45.9 °F 40.4 °F 43.0 °F 90% 29.49 in 2.5 mi SW 11.5 mph 25.3 mph N/A Rain Light Rain
3:16 PM 45.9 °F 40.4 °F 43.0 °F 90% 29.49 in 2.5 mi SW 11.5 mph 25.3 mph N/A Rain Light Rain
3:39 PM 45.5 °F 40.3 °F 43.2 °F 92% 29.50 in 5.0 mi SW 10.4 mph 18.4 mph 0.01 in Rain Rain
3:56 PM 45.7 °F 39.1 °F 42.8 °F 90% 29.51 in 10.0 mi SW 15.0 mph 26.5 mph 0.01 in   Overcast
4:15 PM 45.7 °F 38.8 °F 42.6 °F 89% 29.52 in 10.0 mi SW 16.1 mph 20.7 mph N/A   Overcast
4:16 PM 45.7 °F 39.1 °F 42.6 °F 89% 29.52 in 10.0 mi SW 15.0 mph 20.7 mph N/A   Overcast
4:39 PM 45.5 °F 38.6 °F 42.8 °F 90% 29.52 in 4.0 mi SW 16.1 mph 21.9 mph N/A Rain Light Rain
4:56 PM 45.3 °F 38.7 °F 42.8 °F 91% 29.53 in 3.0 mi SW 15.0 mph 23.0 mph 0.01 in Rain Light Rain
5:15 PM 45.0 °F 40.1 °F 42.6 °F 91% 29.54 in 5.0 mi SW 9.2 mph 16.1 mph N/A Rain Light Rain
5:16 PM 45.0 °F 40.1 °F 42.6 °F 91% 29.54 in 7.0 mi SW 9.2 mph 16.1 mph N/A Rain Light Rain
5:35 PM 45.0 °F 39.3 °F 42.4 °F 91% 29.55 in 5.0 mi SW 11.5 mph - N/A Rain Rain
5:39 PM 45.0 °F 38.9 °F 42.4 °F 91% 29.54 in 5.0 mi SW 12.7 mph 17.3 mph N/A   Light Drizzle
6:15 PM 44.8 °F 39.4 °F 42.3 °F 91% 29.55 in 7.0 mi SW 10.4 mph 16.1 mph N/A Rain Light Rain
6:35 PM 44.8 °F 39.4 °F 42.3 °F 91% 29.56 in 10.0 mi SW 10.4 mph 17.3 mph N/A   Overcast
6:40 PM 44.8 °F 39.9 °F 42.3 °F 91% 29.57 in 10.0 mi SW 9.2 mph 17.3 mph N/A   Overcast
6:58 PM 44.8 °F 39.0 °F 41.4 °F 88% 29.57 in 10.0 mi WSW 11.5 mph 25.3 mph N/A   Overcast
7:16 PM 44.6 °F 38.4 °F 41.9 °F 90% 29.58 in 10.0 mi WSW 12.7 mph 17.3 mph N/A   Overcast
7:35 PM 44.8 °F 39.4 °F 41.5 °F 88% 29.59 in 10.0 mi WSW 10.4 mph - N/A   Overcast
7:36 PM 44.8 °F 39.4 °F 41.5 °F 88% 29.59 in 10.0 mi WSW 10.4 mph - N/A   Overcast
7:55 PM 44.6 °F 38.4 °F 41.2 °F 88% 29.60 in 7.0 mi SW 12.7 mph 20.7 mph N/A Rain Light Rain
7:59 PM 44.2 °F 37.3 °F 41.0 °F 88% 29.60 in 4.0 mi WSW 15.0 mph 20.7 mph N/A Rain Light Rain
8:17 PM 43.9 °F 37.2 °F 41.2 °F 90% 29.61 in 7.0 mi SW 13.8 mph 18.4 mph N/A Rain Light Rain
8:35 PM 44.1 °F 39.5 °F 41.4 °F 90% 29.61 in 10.0 mi WSW 8.1 mph - N/A   Overcast
8:36 PM 44.1 °F 39.5 °F 41.4 °F 90% 29.61 in 10.0 mi WSW 8.1 mph - N/A   Overcast
8:55 PM 43.7 °F 37.3 °F 41.0 °F 90% 29.62 in 5.0 mi SW 12.7 mph 16.1 mph N/A Rain Light Rain
8:59 PM 43.5 °F 37.1 °F 41.0 °F 91% 29.62 in 3.0 mi WSW 12.7 mph - N/A Rain Light Rain
9:17 PM 43.2 °F 35.9 °F 40.6 °F 91% 29.62 in 5.0 mi WSW 15.0 mph 20.7 mph 0.01 in Rain Light Rain
9:35 PM 43.2 °F 36.2 °F 40.6 °F 91% 29.62 in 4.0 mi SW 13.8 mph 21.9 mph 0.01 in Rain Light Rain
9:36 PM 43.2 °F 35.9 °F 40.6 °F 91% 29.62 in 4.0 mi WSW 15.0 mph 21.9 mph 0.01 in Rain Light Rain
9:55 PM 43.0 °F 36.4 °F 40.6 °F 91% 29.62 in 7.0 mi SW 12.7 mph 18.4 mph 0.02 in Rain Light Rain
10:00 PM 43.2 °F 36.6 °F 40.6 °F 91% 29.62 in 7.0 mi WSW 12.7 mph 19.6 mph N/A Rain Light Rain
10:17 PM 43.3 °F 37.7 °F 40.8 °F 91% 29.63 in 7.0 mi WSW 10.4 mph 20.7 mph N/A Rain Light Rain
10:35 PM 43.3 °F 38.6 °F 40.8 °F 91% 29.63 in 10.0 mi WSW 8.1 mph 17.3 mph N/A   Overcast
10:36 PM 43.3 °F 38.6 °F 41.0 °F 91% 29.63 in 10.0 mi WSW 8.1 mph 17.3 mph N/A   Overcast
10:55 PM 43.3 °F 36.8 °F 41.0 °F 91% 29.64 in 10.0 mi WSW 12.7 mph 18.4 mph N/A   Overcast
10:56 PM 43.3 °F 36.8 °F 41.0 °F 91% 29.63 in 10.0 mi WSW 12.7 mph 18.4 mph N/A   Overcast
11:17 PM 43.3 °F 38.6 °F 40.5 °F 90% 29.64 in 10.0 mi SW 8.1 mph - N/A   Overcast
11:35 PM 43.2 °F 38.4 °F 40.6 °F 91% 29.64 in 7.0 mi WSW 8.1 mph - N/A Rain Light Rain
11:36 PM 43.2 °F 37.9 °F 40.6 °F 91% 29.64 in 7.0 mi WSW 9.2 mph - N/A Rain Light Rain
11:55 PM 43.0 °F 38.2 °F 40.6 °F 91% 29.64 in 10.0 mi WSW 8.1 mph - N/A   Overcast
11:56 PM 43.0 °F 38.2 °F 40.6 °F 91% 29.64 in 10.0 mi WSW 8.1 mph - N/A   Overcast